Terminal Aerodrome Forecast
Issued by NWS

Home | Current Version | Previous Version | Text Only | Print | Product List | Glossary On
Versions: 1 2 3 4 5 6 7 8 9 10 11 12 13 14
000
FTUS46 KOTX 222339 CCA
TAFPUW
TAF COR
KPUW 222339Z 2300/2324 35007KT P6SM VCTS SCT070CB BKN100
     FM230400 05005KT P6SM SCT080 BKN150 BKN250
     FM231700 11006KT P6SM SCT080 BKN150 BKN250
     FM232000 27007KT P6SM VCSH SCT040 BKN100 BKN150=

USA.gov is the U.S. government's official web portal to all federal, state and local government web resources and services.